Terminal Aerodrome Forecast
Issued by NWS Grand Rapids, MI

Home | Current Version | Previous Version | Text Only | Print | Product List | Glossary On
Versions: 1 2 3 4 5 6 7 8 9 10 11 12 13 14
000
FTUS43 KGRR 230027 AAA
TAFGRR
TAF AMD
KGRR 230027Z 2300/2324 26007KT P6SM -SHRA OVC007
      TEMPO 2302/2304 2SM SHRA BR
     FM230400 29006KT 5SM -SHRA BR OVC009
     FM230600 29006KT 4SM -RA BR OVC007
     FM231000 33005KT 3SM RA BR OVC007
     FM231800 02004KT 1 1/2SM +RA BR OVC004=

USA.gov is the U.S. government's official web portal to all federal, state and local government web resources and services.